createdAt,value
2023-03-29T00:00:36.641Z,10.30
2023-03-29T00:03:05.308Z,10.30
2023-03-29T00:05:35.503Z,10.40
2023-03-29T00:08:04.365Z,10.40
2023-03-29T00:10:33.655Z,10.50
2023-03-29T00:13:02.951Z,10.40
2023-03-29T00:15:32.457Z,10.50
2023-03-29T00:18:00.860Z,10.50
2023-03-29T00:20:29.718Z,10.50
2023-03-29T00:22:58.000Z,10.50
2023-03-29T00:25:26.181Z,10.50
2023-03-29T00:27:54.314Z,10.50
2023-03-29T00:30:22.470Z,10.50
2023-03-29T00:32:52.466Z,10.50
2023-03-29T00:35:20.970Z,10.50
2023-03-29T00:37:50.966Z,10.50
2023-03-29T00:40:19.761Z,10.50
2023-03-29T00:42:48.195Z,10.50
2023-03-29T00:45:22.365Z,10.50
2023-03-29T00:47:55.609Z,10.60
2023-03-29T00:50:29.683Z,10.60
2023-03-29T00:53:03.529Z,10.50
2023-03-29T00:55:35.926Z,10.50
2023-03-29T00:58:07.712Z,10.40
2023-03-29T01:00:41.362Z,10.40
2023-03-29T01:03:14.978Z,10.40
2023-03-29T01:05:46.801Z,10.30
2023-03-29T01:08:21.688Z,10.30
2023-03-29T01:10:53.611Z,10.20
2023-03-29T01:13:27.256Z,10.20
2023-03-29T01:15:58.416Z,10.20
2023-03-29T01:18:27.987Z,10.10
2023-03-29T01:21:12.521Z,10.20
2023-03-29T01:24:12.229Z,10.10
2023-03-29T01:26:48.629Z,10.20
2023-03-29T01:29:24.852Z,10.30
2023-03-29T01:31:59.054Z,10.30
2023-03-29T01:34:34.327Z,10.30
2023-03-29T01:37:08.661Z,10.30
2023-03-29T01:39:36.914Z,10.30
2023-03-29T01:42:16.570Z,10.30
2023-03-29T01:44:53.860Z,10.30
2023-03-29T01:47:28.618Z,10.30
2023-03-29T01:50:07.595Z,10.20
2023-03-29T01:52:40.801Z,10.30
2023-03-29T01:55:13.098Z,10.30
2023-03-29T01:57:45.541Z,10.30
2023-03-29T02:00:17.784Z,10.30
2023-03-29T02:02:48.466Z,10.30
2023-03-29T02:05:19.717Z,10.30
2023-03-29T02:07:50.462Z,10.30
2023-03-29T02:10:19.808Z,10.30
2023-03-29T02:12:48.466Z,10.30
2023-03-29T02:15:20.570Z,10.30
2023-03-29T02:17:49.508Z,10.30
2023-03-29T02:20:23.570Z,10.30
2023-03-29T02:22:58.724Z,10.30
2023-03-29T02:25:27.087Z,10.30
2023-03-29T02:27:56.040Z,10.40
2023-03-29T02:30:31.820Z,10.40
2023-03-29T02:33:05.975Z,10.40
2023-03-29T02:35:39.144Z,10.40
2023-03-29T02:38:10.524Z,10.40
2023-03-29T02:40:41.152Z,10.40
2023-03-29T02:43:11.136Z,10.50
2023-03-29T02:45:41.876Z,10.40
2023-03-29T02:48:12.528Z,10.40
2023-03-29T02:50:42.188Z,10.40
2023-03-29T02:53:17.183Z,10.40
2023-03-29T02:55:47.230Z,10.40
2023-03-29T02:58:17.085Z,10.50
2023-03-29T03:00:48.690Z,10.50
2023-03-29T03:03:17.092Z,10.40
2023-03-29T03:05:49.037Z,10.50
2023-03-29T03:08:17.104Z,10.40
2023-03-29T03:10:45.795Z,10.40
2023-03-29T03:13:13.930Z,10.40
2023-03-29T03:15:42.810Z,10.30
2023-03-29T03:18:12.754Z,10.20
2023-03-29T03:20:41.264Z,10.20
2023-03-29T03:23:10.749Z,10.20
2023-03-29T03:25:39.031Z,10.20
2023-03-29T03:28:07.595Z,10.30
2023-03-29T03:30:35.744Z,10.30
2023-03-29T03:33:20.452Z,10.30
2023-03-29T03:36:12.334Z,10.30
2023-03-29T03:38:44.104Z,10.20
2023-03-29T03:41:12.872Z,10.30
2023-03-29T03:43:43.071Z,10.30
2023-03-29T03:46:12.266Z,10.30
2023-03-29T03:48:41.866Z,10.30
2023-03-29T03:51:15.507Z,10.30
2023-03-29T03:53:44.222Z,10.40
2023-03-29T03:56:13.523Z,10.50
2023-03-29T03:59:00.059Z,10.50
2023-03-29T04:01:30.301Z,10.50
2023-03-29T04:04:11.563Z,10.50
2023-03-29T04:06:43.736Z,10.60
2023-03-29T04:09:33.346Z,10.50
2023-03-29T04:12:22.160Z,10.50
2023-03-29T04:14:51.084Z,10.60
2023-03-29T04:17:23.988Z,10.60
2023-03-29T04:19:57.446Z,10.60
2023-03-29T04:22:27.883Z,10.60
2023-03-29T04:24:56.221Z,10.60
2023-03-29T04:27:36.268Z,10.60
2023-03-29T04:30:10.739Z,10.60
2023-03-29T04:33:02.041Z,10.60
2023-03-29T04:35:31.841Z,10.60
2023-03-29T04:38:00.153Z,10.70
2023-03-29T04:40:29.788Z,10.70
2023-03-29T04:43:12.229Z,10.60
2023-03-29T04:45:47.958Z,10.70
2023-03-29T04:48:32.286Z,10.70
2023-03-29T04:51:02.064Z,10.70
2023-03-29T04:53:30.361Z,10.70
2023-03-29T04:55:59.516Z,10.70
2023-03-29T04:58:53.352Z,10.70
2023-03-29T05:01:22.732Z,10.60
2023-03-29T05:03:58.084Z,10.70
2023-03-29T05:06:35.210Z,10.70
2023-03-29T05:09:04.827Z,10.70
2023-03-29T05:11:43.185Z,10.70
2023-03-29T05:14:12.252Z,10.70
2023-03-29T05:16:40.955Z,10.70
2023-03-29T05:19:11.328Z,10.70
2023-03-29T05:21:45.679Z,10.70
2023-03-29T05:24:17.707Z,10.60
2023-03-29T05:26:57.260Z,10.70
2023-03-29T05:29:27.781Z,10.70
2023-03-29T05:32:08.119Z,10.60
2023-03-29T05:34:37.176Z,10.60
2023-03-29T05:37:07.778Z,10.60
2023-03-29T05:39:48.973Z,10.60
2023-03-29T05:42:22.556Z,10.60
2023-03-29T05:44:55.592Z,10.60
2023-03-29T05:47:24.828Z,10.60
2023-03-29T05:49:53.340Z,10.60
2023-03-29T05:52:24.927Z,10.50
2023-03-29T05:54:53.498Z,10.50
2023-03-29T05:57:22.948Z,10.40
2023-03-29T05:59:51.274Z,10.50
2023-03-29T06:02:20.111Z,10.50
2023-03-29T06:04:53.971Z,10.50
2023-03-29T06:07:26.274Z,10.50
2023-03-29T06:10:21.042Z,10.50
2023-03-29T06:12:54.612Z,10.50
2023-03-29T06:15:25.632Z,10.40
2023-03-29T06:18:00.796Z,10.40
2023-03-29T06:20:29.179Z,10.40
2023-03-29T06:23:05.078Z,10.40
2023-03-29T06:25:34.205Z,10.40
2023-03-29T06:28:02.836Z,10.40
2023-03-29T06:30:31.035Z,10.40
2023-03-29T06:33:01.173Z,10.50
2023-03-29T06:35:46.897Z,10.50
2023-03-29T06:38:20.789Z,10.50
2023-03-29T06:41:06.023Z,10.50
2023-03-29T06:43:53.779Z,10.50
2023-03-29T06:46:25.794Z,10.60
2023-03-29T06:49:01.057Z,10.60
2023-03-29T06:51:37.492Z,10.60
2023-03-29T06:54:07.495Z,10.60
2023-03-29T06:56:38.164Z,10.70
2023-03-29T06:59:15.005Z,10.70
2023-03-29T07:01:54.000Z,10.80
2023-03-29T07:04:36.101Z,10.80
2023-03-29T07:07:20.516Z,10.80
2023-03-29T07:09:55.938Z,10.80
2023-03-29T07:12:27.192Z,10.80
2023-03-29T07:15:00.690Z,10.80
2023-03-29T07:17:49.084Z,10.80
2023-03-29T07:20:19.700Z,10.90
2023-03-29T07:22:52.443Z,10.90
2023-03-29T07:25:24.317Z,10.80
2023-03-29T07:27:53.433Z,10.90
2023-03-29T07:30:24.236Z,10.90
2023-03-29T07:32:54.263Z,10.90
2023-03-29T07:35:32.970Z,11.00
2023-03-29T07:38:03.185Z,10.90
2023-03-29T07:40:34.159Z,10.90
2023-03-29T07:43:28.380Z,11.00
2023-03-29T07:45:59.149Z,10.90
2023-03-29T07:48:28.552Z,10.90
2023-03-29T07:51:04.395Z,11.00
2023-03-29T07:53:41.295Z,11.00
2023-03-29T07:56:26.473Z,11.10
2023-03-29T07:59:11.613Z,11.10
2023-03-29T08:01:41.976Z,11.10
2023-03-29T08:04:34.321Z,11.20
2023-03-29T08:07:34.508Z,11.20
2023-03-29T08:10:05.689Z,11.20
2023-03-29T08:13:11.860Z,11.20
2023-03-29T08:15:55.640Z,11.30
2023-03-29T08:18:34.239Z,11.30
2023-03-29T08:21:05.517Z,11.40
2023-03-29T08:23:34.089Z,11.40
2023-03-29T08:26:18.160Z,11.40
2023-03-29T08:28:49.705Z,11.50
2023-03-29T08:31:19.849Z,11.50
2023-03-29T08:33:47.990Z,11.50
2023-03-29T08:36:48.616Z,11.60
2023-03-29T08:39:26.690Z,11.60
2023-03-29T08:42:40.892Z,11.60
2023-03-29T08:45:17.809Z,11.70
2023-03-29T08:47:55.549Z,11.80
2023-03-29T08:50:33.548Z,11.90
2023-03-29T08:53:06.004Z,12.00
2023-03-29T08:55:56.862Z,12.10
2023-03-29T08:58:48.020Z,12.20
2023-03-29T09:01:17.670Z,12.20
2023-03-29T09:04:05.737Z,12.20
2023-03-29T09:06:47.529Z,12.40
2023-03-29T09:09:23.211Z,12.50
2023-03-29T09:12:07.960Z,12.50
2023-03-29T09:14:58.626Z,12.60
2023-03-29T09:17:40.051Z,12.60
2023-03-29T09:20:23.519Z,12.70
2023-03-29T09:23:04.473Z,12.70
2023-03-29T09:25:56.956Z,12.70
2023-03-29T09:28:38.473Z,12.80
2023-03-29T09:31:12.400Z,12.90
2023-03-29T09:33:45.990Z,12.90
2023-03-29T09:36:26.202Z,13.00
2023-03-29T09:38:55.597Z,13.00
2023-03-29T09:41:33.076Z,13.00
2023-03-29T09:44:10.877Z,13.00
2023-03-29T09:46:45.178Z,13.00
2023-03-29T09:49:18.533Z,13.20
2023-03-29T09:51:50.302Z,13.20
2023-03-29T09:54:20.851Z,13.30
2023-03-29T09:57:21.651Z,13.30
2023-03-29T09:59:52.488Z,13.30
2023-03-29T10:02:22.382Z,13.40
2023-03-29T10:04:58.865Z,13.50
2023-03-29T10:07:38.120Z,13.60
2023-03-29T10:10:10.761Z,13.60
2023-03-29T10:12:39.060Z,13.70
2023-03-29T10:15:16.731Z,13.70
2023-03-29T10:17:59.759Z,13.80
2023-03-29T10:20:29.447Z,13.80
2023-03-29T10:22:59.063Z,13.80
2023-03-29T10:25:30.032Z,13.90
2023-03-29T10:28:06.030Z,14.00
2023-03-29T10:30:39.132Z,14.00
2023-03-29T10:33:16.740Z,14.10
2023-03-29T10:35:47.871Z,14.20
2023-03-29T10:38:18.783Z,14.20
2023-03-29T10:40:48.950Z,14.20
2023-03-29T10:43:23.258Z,14.20
2023-03-29T10:45:52.802Z,14.20
2023-03-29T10:48:26.574Z,14.30
2023-03-29T10:50:59.892Z,14.30
2023-03-29T10:53:31.753Z,14.30
2023-03-29T10:56:22.995Z,14.30
2023-03-29T10:59:09.342Z,14.40
2023-03-29T11:01:48.722Z,14.50
2023-03-29T11:04:28.390Z,14.50
2023-03-29T11:07:15.948Z,14.60
2023-03-29T11:09:51.299Z,14.70
2023-03-29T11:12:24.379Z,14.70
2023-03-29T11:15:04.659Z,14.80
2023-03-29T11:17:51.852Z,14.80
2023-03-29T11:20:28.819Z,14.90
2023-03-29T11:23:12.027Z,14.90
2023-03-29T11:25:50.287Z,15.00
2023-03-29T11:28:22.577Z,15.00
2023-03-29T11:30:59.210Z,15.00
2023-03-29T11:33:38.701Z,15.00
2023-03-29T11:36:13.695Z,15.00
2023-03-29T11:38:52.299Z,15.00
2023-03-29T11:41:24.216Z,15.00
2023-03-29T11:43:56.293Z,15.00
2023-03-29T11:46:31.606Z,15.00
2023-03-29T11:49:04.554Z,15.00
2023-03-29T11:51:37.286Z,15.10
2023-03-29T11:54:16.365Z,15.10
2023-03-29T11:56:48.616Z,15.10
2023-03-29T11:59:23.856Z,15.20
2023-03-29T12:01:56.270Z,15.20
2023-03-29T12:04:31.419Z,15.20
2023-03-29T12:07:10.669Z,15.30
2023-03-29T12:09:44.868Z,15.40
2023-03-29T12:12:18.719Z,15.50
2023-03-29T12:14:56.459Z,15.50
2023-03-29T12:17:31.385Z,15.50
2023-03-29T12:20:08.118Z,15.60
2023-03-29T12:22:41.462Z,15.60
2023-03-29T12:25:19.670Z,15.70
2023-03-29T12:27:58.618Z,15.80
2023-03-29T12:30:38.822Z,15.90
2023-03-29T12:33:31.384Z,15.90
2023-03-29T12:36:56.479Z,16.00
2023-03-29T12:39:43.155Z,16.10
2023-03-29T12:42:31.386Z,16.10
2023-03-29T12:45:39.077Z,16.10
2023-03-29T12:48:08.639Z,16.20
2023-03-29T12:50:42.581Z,16.30
2023-03-29T12:53:20.511Z,16.30
2023-03-29T12:55:52.265Z,16.40
2023-03-29T12:58:37.995Z,16.40
2023-03-29T13:01:08.533Z,16.50
2023-03-29T13:03:43.504Z,16.70
2023-03-29T13:06:13.149Z,16.70
2023-03-29T13:08:43.887Z,16.80
2023-03-29T13:11:14.745Z,16.80
2023-03-29T13:13:45.182Z,16.90
2023-03-29T13:16:15.815Z,17.00
2023-03-29T13:18:58.706Z,17.10
2023-03-29T13:21:36.044Z,17.10
2023-03-29T13:24:18.226Z,17.30
2023-03-29T13:26:54.150Z,17.40
2023-03-29T13:29:38.013Z,17.40
2023-03-29T13:32:37.167Z,17.50
2023-03-29T13:35:15.622Z,17.60
2023-03-29T13:37:54.299Z,17.60
2023-03-29T13:40:33.036Z,17.70
2023-03-29T13:43:03.086Z,17.70
2023-03-29T13:45:33.893Z,17.80
2023-03-29T13:48:05.875Z,18.00
2023-03-29T13:50:38.726Z,18.30
2023-03-29T13:53:13.778Z,18.40
2023-03-29T13:55:48.260Z,18.40
2023-03-29T13:58:30.176Z,18.40
2023-03-29T14:01:03.460Z,18.40
2023-03-29T14:03:38.510Z,18.40
2023-03-29T14:06:07.838Z,18.40
2023-03-29T14:08:41.411Z,18.50
2023-03-29T14:11:19.715Z,18.50
2023-03-29T14:13:47.881Z,18.50
2023-03-29T14:16:17.377Z,18.50
2023-03-29T14:18:47.897Z,18.50
2023-03-29T14:21:16.529Z,18.50
2023-03-29T14:23:46.596Z,18.60
2023-03-29T14:26:17.386Z,18.70
2023-03-29T14:28:47.172Z,18.80
2023-03-29T14:31:20.914Z,18.90
2023-03-29T14:33:53.171Z,19.00
2023-03-29T14:36:22.532Z,19.00
2023-03-29T14:38:53.335Z,19.10
2023-03-29T14:41:24.372Z,19.20
2023-03-29T14:43:52.642Z,19.30
2023-03-29T14:46:23.196Z,19.30
2023-03-29T14:48:51.669Z,19.40
2023-03-29T14:51:20.209Z,19.40
2023-03-29T14:53:50.487Z,19.40
2023-03-29T14:56:24.168Z,19.60
2023-03-29T14:58:55.785Z,19.60
2023-03-29T15:01:27.777Z,19.70
2023-03-29T15:03:57.540Z,19.80
2023-03-29T15:06:27.378Z,19.80
2023-03-29T15:09:05.077Z,19.70
2023-03-29T15:11:35.924Z,19.60
2023-03-29T15:14:06.260Z,19.50
2023-03-29T15:16:39.875Z,19.50
2023-03-29T15:19:17.278Z,19.50
2023-03-29T15:21:47.896Z,19.40
2023-03-29T15:24:23.293Z,19.40
2023-03-29T15:27:03.073Z,19.30
2023-03-29T15:29:41.963Z,19.30
2023-03-29T15:32:20.579Z,19.30
2023-03-29T15:34:59.785Z,19.30
2023-03-29T15:37:28.574Z,19.30
2023-03-29T15:39:57.425Z,19.30
2023-03-29T15:42:26.534Z,19.30
2023-03-29T15:44:56.667Z,19.40
2023-03-29T15:47:26.487Z,19.30
2023-03-29T15:49:55.410Z,19.40
2023-03-29T15:52:23.588Z,19.30
2023-03-29T15:54:51.754Z,19.30
2023-03-29T15:57:20.138Z,19.30
2023-03-29T15:59:48.291Z,19.20
2023-03-29T16:02:17.374Z,19.20
2023-03-29T16:04:47.034Z,19.20
2023-03-29T16:07:17.127Z,19.10
2023-03-29T16:09:45.879Z,19.10
2023-03-29T16:12:16.110Z,19.10
2023-03-29T16:14:44.259Z,19.00
2023-03-29T16:17:12.411Z,18.90
2023-03-29T16:19:40.573Z,19.00
2023-03-29T16:22:10.300Z,18.90
2023-03-29T16:24:38.740Z,18.90
2023-03-29T16:27:06.950Z,18.90
2023-03-29T16:29:35.221Z,18.90
2023-03-29T16:32:06.153Z,18.90
2023-03-29T16:34:36.034Z,18.90
2023-03-29T16:37:04.406Z,18.90
2023-03-29T16:39:34.396Z,18.90
2023-03-29T16:42:02.795Z,18.80
2023-03-29T16:44:30.999Z,18.90
2023-03-29T16:46:59.288Z,18.80
2023-03-29T16:49:27.618Z,18.90
2023-03-29T16:51:56.046Z,18.80
2023-03-29T16:54:25.739Z,18.80
2023-03-29T16:56:55.693Z,18.90
2023-03-29T16:59:24.082Z,18.90
2023-03-29T17:01:52.415Z,18.90
2023-03-29T17:04:20.773Z,18.90
2023-03-29T17:06:48.927Z,18.90
2023-03-29T17:09:17.716Z,18.90
2023-03-29T17:11:46.066Z,18.80
2023-03-29T17:14:15.861Z,18.70
2023-03-29T17:16:44.090Z,18.70
2023-03-29T17:19:12.315Z,18.70
2023-03-29T17:21:41.175Z,18.60
2023-03-29T17:24:10.562Z,18.50
2023-03-29T17:26:38.709Z,18.40
2023-03-29T17:29:07.302Z,18.40
2023-03-29T17:31:38.041Z,18.40
2023-03-29T17:34:06.604Z,18.40
2023-03-29T17:36:37.358Z,18.30
2023-03-29T17:39:05.574Z,18.30
2023-03-29T17:41:33.838Z,18.30
2023-03-29T17:44:02.198Z,18.30
2023-03-29T17:46:30.651Z,18.30
2023-03-29T17:49:00.436Z,18.30
2023-03-29T17:51:28.874Z,18.30
2023-03-29T17:53:57.832Z,18.30
2023-03-29T17:56:26.539Z,18.30
2023-03-29T17:58:54.820Z,18.30
2023-03-29T18:01:23.014Z,18.20
2023-03-29T18:03:51.455Z,18.20
2023-03-29T18:06:21.328Z,18.20
2023-03-29T18:08:49.587Z,18.20
2023-03-29T18:11:22.539Z,18.20
2023-03-29T18:13:51.559Z,18.20
2023-03-29T18:16:20.658Z,18.10
2023-03-29T18:18:49.398Z,18.10
2023-03-29T18:21:18.241Z,18.00
2023-03-29T18:23:49.110Z,18.00
2023-03-29T18:26:18.204Z,18.10
2023-03-29T18:28:47.558Z,18.10
2023-03-29T18:31:16.592Z,18.20
2023-03-29T18:33:44.833Z,18.20
2023-03-29T18:36:13.667Z,18.20
2023-03-29T18:38:43.142Z,18.20
2023-03-29T18:41:14.472Z,18.20
2023-03-29T18:43:44.201Z,18.20
2023-03-29T18:46:12.664Z,18.20
2023-03-29T18:48:41.908Z,18.20
2023-03-29T18:51:12.563Z,18.20
2023-03-29T18:53:42.806Z,18.20
2023-03-29T18:56:12.605Z,18.20
2023-03-29T18:58:40.929Z,18.20
2023-03-29T19:01:10.661Z,18.20
2023-03-29T19:03:38.867Z,18.20
2023-03-29T19:06:07.942Z,18.30
2023-03-29T19:08:39.559Z,18.30
2023-03-29T19:11:09.918Z,18.20
2023-03-29T19:13:39.449Z,18.30
2023-03-29T19:16:07.909Z,18.30
2023-03-29T19:18:36.643Z,18.20
2023-03-29T19:21:04.859Z,18.30
2023-03-29T19:23:33.036Z,18.30
2023-03-29T19:26:03.676Z,18.40
2023-03-29T19:28:32.812Z,18.30
2023-03-29T19:31:03.435Z,18.20
2023-03-29T19:33:31.641Z,18.20
2023-03-29T19:35:59.747Z,18.30
2023-03-29T19:38:27.904Z,18.20
2023-03-29T19:40:56.088Z,18.10
2023-03-29T19:43:24.905Z,18.20
2023-03-29T19:45:53.068Z,18.20
2023-03-29T19:48:24.350Z,18.20
2023-03-29T19:50:52.935Z,18.20
2023-03-29T19:53:21.255Z,18.20
2023-03-29T19:55:49.886Z,18.10
2023-03-29T19:58:18.030Z,18.10
2023-03-29T20:00:46.729Z,18.20
2023-03-29T20:03:15.695Z,18.20
2023-03-29T20:05:45.361Z,18.20
2023-03-29T20:08:13.682Z,18.20
2023-03-29T20:10:42.506Z,18.20
2023-03-29T20:13:10.629Z,18.20
2023-03-29T20:15:38.771Z,18.20
2023-03-29T20:18:07.973Z,18.20
2023-03-29T20:20:36.161Z,18.10
2023-03-29T20:23:05.727Z,18.10
2023-03-29T20:25:33.933Z,18.10
2023-03-29T20:28:02.362Z,18.10
2023-03-29T20:30:30.438Z,18.00
2023-03-29T20:32:58.646Z,18.00
2023-03-29T20:35:27.141Z,18.00
2023-03-29T20:37:55.493Z,18.00
2023-03-29T20:40:24.932Z,18.00
2023-03-29T20:42:54.224Z,18.00
2023-03-29T20:45:22.425Z,18.10
2023-03-29T20:47:56.131Z,18.10
2023-03-29T20:50:30.137Z,18.10
2023-03-29T20:53:03.629Z,18.20
2023-03-29T20:55:34.253Z,18.20
2023-03-29T20:58:03.177Z,18.30
2023-03-29T21:00:33.810Z,18.30
2023-03-29T21:03:03.632Z,18.30
2023-03-29T21:05:33.728Z,18.30
2023-03-29T21:08:02.444Z,18.30
2023-03-29T21:10:31.918Z,18.30
2023-03-29T21:13:00.622Z,18.30
2023-03-29T21:15:30.530Z,18.40
2023-03-29T21:17:59.132Z,18.30
2023-03-29T21:20:27.655Z,18.40
2023-03-29T21:22:55.997Z,18.40
2023-03-29T21:25:24.135Z,18.30
2023-03-29T21:27:53.599Z,18.40
2023-03-29T21:30:21.712Z,18.40
2023-03-29T21:32:49.849Z,18.40
2023-03-29T21:35:17.950Z,18.50
2023-03-29T21:37:46.635Z,18.50
2023-03-29T21:40:15.268Z,18.50
2023-03-29T21:42:43.385Z,18.50
2023-03-29T21:45:13.547Z,18.50
2023-03-29T21:47:41.752Z,18.50
2023-03-29T21:50:10.763Z,18.50
2023-03-29T21:52:38.953Z,18.60
2023-03-29T21:55:07.577Z,18.60
2023-03-29T21:57:35.626Z,18.50
2023-03-29T22:00:05.312Z,18.50
2023-03-29T22:02:34.845Z,18.60
2023-03-29T22:05:02.982Z,18.60
2023-03-29T22:07:31.220Z,18.60
2023-03-29T22:10:04.261Z,18.60
2023-03-29T22:12:34.497Z,18.60
2023-03-29T22:15:03.268Z,18.60
2023-03-29T22:17:31.414Z,18.60
2023-03-29T22:20:02.538Z,18.60
2023-03-29T22:22:30.604Z,18.60
2023-03-29T22:24:58.802Z,18.70
2023-03-29T22:27:26.965Z,18.60
2023-03-29T22:29:55.053Z,18.60
2023-03-29T22:32:23.206Z,18.60
2023-03-29T22:34:51.352Z,18.70
2023-03-29T22:37:22.557Z,18.70
2023-03-29T22:39:51.276Z,18.70
2023-03-29T22:42:19.443Z,18.70
2023-03-29T22:44:47.609Z,18.70
2023-03-29T22:47:15.847Z,18.70
2023-03-29T22:49:43.930Z,18.70
2023-03-29T22:52:12.091Z,18.50
2023-03-29T22:54:41.640Z,18.50
2023-03-29T22:57:09.826Z,18.40
2023-03-29T22:59:37.894Z,18.40
2023-03-29T23:02:06.199Z,18.40
2023-03-29T23:04:35.463Z,18.40
2023-03-29T23:07:03.670Z,18.40
2023-03-29T23:09:32.471Z,18.20
2023-03-29T23:12:02.267Z,18.20
2023-03-29T23:14:30.396Z,18.20
2023-03-29T23:16:58.509Z,18.30
2023-03-29T23:19:27.053Z,18.20
2023-03-29T23:21:55.180Z,18.30
2023-03-29T23:24:23.483Z,18.30
2023-03-29T23:26:51.566Z,18.30
2023-03-29T23:29:21.013Z,18.40
2023-03-29T23:31:49.280Z,18.40
2023-03-29T23:34:18.199Z,18.50
2023-03-29T23:36:46.222Z,18.50
2023-03-29T23:39:14.514Z,18.50
2023-03-29T23:41:42.644Z,18.50
2023-03-29T23:44:10.745Z,18.60
2023-03-29T23:46:40.924Z,18.60
2023-03-29T23:49:10.003Z,18.60
2023-03-29T23:51:39.322Z,18.70
2023-03-29T23:54:07.477Z,18.60
2023-03-29T23:56:35.969Z,18.60
2023-03-29T23:59:04.442Z,18.70
